Terminal Aerodrome Forecast
Issued by NWS

Home | Current Version | Previous Version | Text Only | Print | Product List | Glossary On
Versions: 1 2 3 4 5 6 7 8 9 10 11 12 13 14 15 16 17 18 19 20 21 22 23 24
000
FTUS45 KGGW 131720
TAFGDV
TAF
KGDV 131720Z 1318/1418 31017KT P6SM BKN210
     FM140600 30014KT P6SM VCSH BKN060
     FM140800 31019G27KT P6SM VCSH BKN029
     FM141000 31021G29KT P6SM VCSH BKN025
     FM141400 32016KT P6SM BKN017
     FM141700 32016KT P6SM BKN023=

USA.gov is the U.S. government's official web portal to all federal, state and local government web resources and services.